createdAt,value
2022-12-28T00:01:33.687Z,16.54
2022-12-28T00:05:50.777Z,16.53
2022-12-28T00:10:07.855Z,16.49
2022-12-28T00:14:25.352Z,16.17
2022-12-28T00:18:43.345Z,16.11
2022-12-28T00:23:00.527Z,16.08
2022-12-28T00:27:17.424Z,15.99
2022-12-28T00:31:34.770Z,16.25
2022-12-28T00:35:56.240Z,16.35
2022-12-28T00:40:15.423Z,16.38
2022-12-28T00:44:35.971Z,16.48
2022-12-28T00:48:52.975Z,16.37
2022-12-28T00:53:11.014Z,16.38
2022-12-28T00:57:27.941Z,16.42
2022-12-28T01:01:45.045Z,16.47
2022-12-28T01:06:07.071Z,16.37
2022-12-28T01:10:24.071Z,16.42
2022-12-28T01:14:41.154Z,16.35
2022-12-28T01:19:01.421Z,16.43
2022-12-28T01:23:18.539Z,16.43
2022-12-28T01:27:35.434Z,16.38
2022-12-28T01:31:52.575Z,16.38
2022-12-28T01:36:15.835Z,16.38
2022-12-28T01:40:32.881Z,16.44
2022-12-28T01:44:52.936Z,16.46
2022-12-28T01:49:40.338Z,16.44
2022-12-28T01:53:59.553Z,16.42
2022-12-28T01:58:25.261Z,16.47
2022-12-28T02:02:51.555Z,16.50
2022-12-28T02:07:09.312Z,16.47
2022-12-28T02:11:26.543Z,16.48
2022-12-28T02:15:45.096Z,16.47
2022-12-28T02:20:04.015Z,16.60
2022-12-28T02:24:49.908Z,16.23
2022-12-28T02:29:35.419Z,16.08
2022-12-28T02:34:08.810Z,15.80
2022-12-28T02:38:42.175Z,16.37
2022-12-28T02:43:01.626Z,16.35
2022-12-28T02:47:37.666Z,16.36
2022-12-28T02:52:07.585Z,16.33
2022-12-28T02:56:49.794Z,16.37
2022-12-28T03:01:18.840Z,16.34
2022-12-28T03:06:19.664Z,16.38
2022-12-28T03:10:52.076Z,16.42
2022-12-28T03:15:30.163Z,16.38
2022-12-28T03:20:16.934Z,16.42
2022-12-28T03:24:56.022Z,16.42
2022-12-28T03:29:35.312Z,16.42
2022-12-28T03:34:07.128Z,16.49
2022-12-28T03:38:58.059Z,16.49
2022-12-28T03:43:43.027Z,16.45
2022-12-28T03:48:03.032Z,16.60
2022-12-28T03:52:20.207Z,16.67
2022-12-28T03:56:47.654Z,15.97
2022-12-28T04:01:05.955Z,15.87
2022-12-28T04:05:22.963Z,16.37
2022-12-28T04:09:40.079Z,16.39
2022-12-28T04:13:57.166Z,16.34
2022-12-28T04:18:14.245Z,16.43
2022-12-28T04:22:31.130Z,16.44
2022-12-28T04:26:49.318Z,16.45
2022-12-28T04:31:07.974Z,16.46
2022-12-28T04:35:25.063Z,16.42
2022-12-28T04:39:55.451Z,16.46
2022-12-28T04:44:13.705Z,16.53
2022-12-28T04:48:31.328Z,16.54
2022-12-28T04:52:48.372Z,16.60
2022-12-28T04:57:05.250Z,16.55
2022-12-28T05:01:22.618Z,16.64
2022-12-28T05:05:39.546Z,16.63
2022-12-28T05:09:56.654Z,15.92
2022-12-28T05:14:13.650Z,16.17
2022-12-28T05:18:30.943Z,16.34
2022-12-28T05:22:47.784Z,16.40
2022-12-28T05:27:04.906Z,16.47
2022-12-28T05:31:23.431Z,16.44
2022-12-28T05:35:40.575Z,16.43
2022-12-28T05:39:57.604Z,16.48
2022-12-28T05:44:14.634Z,16.43
2022-12-28T05:48:36.111Z,16.47
2022-12-28T05:52:53.263Z,16.57
2022-12-28T05:57:10.117Z,16.45
2022-12-28T06:01:34.699Z,16.45
2022-12-28T06:05:51.626Z,16.52
2022-12-28T06:10:09.349Z,16.57
2022-12-28T06:14:26.280Z,16.66
2022-12-28T06:18:44.343Z,15.99
2022-12-28T06:23:01.233Z,15.79
2022-12-28T06:27:19.237Z,16.28
2022-12-28T06:31:40.124Z,16.37
2022-12-28T06:35:57.303Z,16.37
2022-12-28T06:40:14.869Z,16.37
2022-12-28T06:44:31.717Z,16.33
2022-12-28T06:48:49.468Z,16.35
2022-12-28T06:53:06.314Z,16.36
2022-12-28T06:57:23.382Z,16.35
2022-12-28T07:01:44.584Z,16.41
2022-12-28T07:06:03.827Z,16.45
2022-12-28T07:10:20.680Z,16.48
2022-12-28T07:14:37.744Z,16.44
2022-12-28T07:18:56.029Z,16.54
2022-12-28T07:23:13.145Z,16.52
2022-12-28T07:27:30.028Z,16.52
2022-12-28T07:31:47.174Z,16.64
2022-12-28T07:36:10.262Z,16.67
2022-12-28T07:40:27.673Z,15.97
2022-12-28T07:44:49.149Z,16.15
2022-12-28T07:49:07.327Z,16.37
2022-12-28T07:53:24.151Z,16.29
2022-12-28T07:57:41.255Z,16.36
2022-12-28T08:01:58.320Z,16.38
2022-12-28T08:06:20.405Z,15.89
2022-12-28T08:10:37.268Z,15.80
2022-12-28T08:14:54.341Z,15.76
2022-12-28T08:19:12.303Z,15.69
2022-12-28T08:23:32.240Z,15.68
2022-12-28T08:27:49.125Z,15.68
2022-12-28T08:32:07.737Z,15.73
2022-12-28T08:36:24.884Z,15.76
2022-12-28T08:40:42.309Z,15.74
2022-12-28T08:44:59.155Z,15.74
2022-12-28T08:49:16.235Z,15.63
2022-12-28T08:53:33.940Z,15.64
2022-12-28T08:57:50.789Z,15.65
2022-12-28T09:02:07.883Z,15.65
2022-12-28T09:06:30.821Z,15.65
2022-12-28T09:10:47.894Z,15.60
2022-12-28T09:15:05.358Z,15.59
2022-12-28T09:19:22.660Z,15.56
2022-12-28T09:23:40.793Z,15.58
2022-12-28T09:27:59.646Z,15.63
2022-12-28T09:32:16.661Z,15.64
2022-12-28T09:36:41.039Z,15.58
2022-12-28T09:40:59.068Z,15.55
2022-12-28T09:45:21.906Z,15.55
2022-12-28T09:49:57.422Z,15.55
2022-12-28T09:54:14.460Z,15.49
2022-12-28T09:58:34.049Z,15.43
2022-12-28T10:03:20.903Z,15.53
2022-12-28T10:07:38.151Z,15.54
2022-12-28T10:11:55.523Z,15.58
2022-12-28T10:16:20.921Z,15.56
2022-12-28T10:20:37.937Z,15.52
2022-12-28T10:24:55.074Z,15.53
2022-12-28T10:29:23.538Z,15.51
2022-12-28T10:33:50.341Z,15.49
2022-12-28T10:38:24.041Z,15.36
2022-12-28T10:42:44.390Z,15.30
2022-12-28T10:47:05.296Z,15.35
2022-12-28T10:51:27.897Z,15.29
2022-12-28T10:55:44.870Z,15.32
2022-12-28T11:00:22.564Z,15.29
2022-12-28T11:04:53.984Z,15.32
2022-12-28T11:09:36.484Z,15.34
2022-12-28T11:14:24.633Z,15.42
2022-12-28T11:18:42.000Z,15.36
2022-12-28T11:22:59.086Z,15.33
2022-12-28T11:27:19.900Z,15.34
2022-12-28T11:32:01.314Z,15.41
2022-12-28T11:36:22.917Z,15.32
2022-12-28T11:40:50.613Z,15.36
2022-12-28T11:45:17.247Z,15.35
2022-12-28T11:49:36.034Z,15.40
2022-12-28T11:54:24.075Z,15.60
2022-12-28T11:58:41.017Z,15.98
2022-12-28T12:03:01.536Z,16.69
2022-12-28T12:07:44.645Z,18.25
2022-12-28T12:12:24.606Z,19.25
2022-12-28T12:16:52.336Z,17.88
2022-12-28T12:21:15.844Z,17.76
2022-12-28T12:25:47.483Z,17.63
2022-12-28T12:30:18.428Z,16.30
2022-12-28T12:34:58.908Z,16.63
2022-12-28T12:39:47.360Z,16.38
2022-12-28T12:44:15.177Z,16.28
2022-12-28T12:49:02.426Z,16.21
2022-12-28T12:54:13.380Z,16.18
2022-12-28T12:59:24.769Z,16.22
2022-12-28T13:03:53.132Z,15.91
2022-12-28T13:08:40.481Z,15.82
2022-12-28T13:13:00.866Z,15.68
2022-12-28T13:17:21.947Z,15.69
2022-12-28T13:21:45.881Z,15.69
2022-12-28T13:26:03.637Z,15.58
2022-12-28T13:30:22.962Z,15.51
2022-12-28T13:34:41.221Z,15.50
2022-12-28T13:39:04.686Z,15.48
2022-12-28T13:44:08.795Z,15.49
2022-12-28T13:48:27.061Z,15.48
2022-12-28T13:52:59.878Z,15.45
2022-12-28T13:57:45.854Z,15.37
2022-12-28T14:01:56.270Z,15.24
2022-12-28T14:06:18.916Z,15.13
2022-12-28T14:10:36.791Z,15.07
2022-12-28T14:14:53.957Z,15.08
2022-12-28T14:19:11.888Z,14.99
2022-12-28T14:23:33.078Z,14.95
2022-12-28T14:28:06.502Z,14.93
2022-12-28T14:32:23.736Z,14.83
2022-12-28T14:36:49.889Z,14.81
2022-12-28T14:41:07.252Z,14.73
2022-12-28T14:46:07.011Z,14.69
2022-12-28T14:50:21.253Z,14.71
2022-12-28T14:55:20.121Z,14.65
2022-12-28T14:59:39.730Z,14.62
2022-12-28T15:03:58.873Z,14.58
2022-12-28T15:08:15.901Z,14.54
2022-12-28T15:12:36.187Z,14.51
2022-12-28T15:16:53.119Z,14.50
2022-12-28T15:21:12.972Z,14.47
2022-12-28T15:25:33.971Z,14.47
2022-12-28T15:30:07.837Z,14.42
2022-12-28T15:34:26.729Z,14.40
2022-12-28T15:38:43.922Z,14.36
2022-12-28T15:43:03.630Z,14.35
2022-12-28T15:47:21.274Z,14.39
2022-12-28T15:51:38.245Z,14.34
2022-12-28T15:56:00.940Z,14.29
2022-12-28T16:00:19.145Z,14.30
2022-12-28T16:04:36.196Z,14.28
2022-12-28T16:08:55.368Z,14.29
2022-12-28T16:13:12.332Z,14.28
2022-12-28T16:17:29.413Z,14.20
2022-12-28T16:21:48.490Z,14.18
2022-12-28T16:26:08.491Z,14.19
2022-12-28T16:30:25.482Z,14.22
2022-12-28T16:34:42.717Z,14.21
2022-12-28T16:39:00.110Z,14.21
2022-12-28T16:43:18.725Z,14.15
2022-12-28T16:47:40.883Z,14.13
2022-12-28T16:52:01.467Z,14.15
2022-12-28T16:56:18.386Z,14.13
2022-12-28T17:00:35.813Z,14.13
2022-12-28T17:04:52.710Z,14.13
2022-12-28T17:09:10.204Z,14.09
2022-12-28T17:13:27.130Z,14.06
2022-12-28T17:17:44.497Z,14.08
2022-12-28T17:22:01.863Z,14.06
2022-12-28T17:26:19.311Z,14.05
2022-12-28T17:30:36.284Z,14.06
2022-12-28T17:34:53.732Z,14.01
2022-12-28T17:39:10.691Z,14.00
2022-12-28T17:43:28.719Z,13.99
2022-12-28T17:47:45.883Z,14.02
2022-12-28T17:52:03.425Z,14.00
2022-12-28T17:56:20.775Z,13.94
2022-12-28T18:00:37.709Z,13.91
2022-12-28T18:04:54.752Z,13.92
2022-12-28T18:09:11.855Z,13.92
2022-12-28T18:13:29.018Z,13.90
2022-12-28T18:17:46.010Z,13.92
2022-12-28T18:22:03.523Z,13.90
2022-12-28T18:26:24.032Z,13.88
2022-12-28T18:30:42.640Z,13.86
2022-12-28T18:34:59.542Z,13.86
2022-12-28T18:39:16.649Z,13.82
2022-12-28T18:43:33.563Z,13.86
2022-12-28T18:47:50.614Z,13.84
2022-12-28T18:52:07.875Z,13.79
2022-12-28T18:56:24.970Z,13.81
2022-12-28T19:00:42.073Z,13.80
2022-12-28T19:04:59.054Z,13.80
2022-12-28T19:09:16.351Z,13.78
2022-12-28T19:13:35.978Z,13.76
2022-12-28T19:17:52.998Z,13.74
2022-12-28T19:22:10.074Z,13.73
2022-12-28T19:26:27.107Z,13.74
2022-12-28T19:30:44.215Z,13.72
2022-12-28T19:35:01.029Z,13.71
2022-12-28T19:39:18.225Z,13.73
2022-12-28T19:43:35.997Z,13.63
2022-12-28T19:47:53.043Z,13.67
2022-12-28T19:52:10.552Z,13.66
2022-12-28T19:56:28.255Z,13.63
2022-12-28T20:00:45.117Z,13.65
2022-12-28T20:05:02.386Z,13.61
2022-12-28T20:09:19.304Z,13.61
2022-12-28T20:13:36.420Z,13.55
2022-12-28T20:17:53.466Z,13.59
2022-12-28T20:22:10.690Z,13.57
2022-12-28T20:26:29.141Z,13.54
2022-12-28T20:30:51.051Z,13.51
2022-12-28T20:35:08.037Z,13.47
2022-12-28T20:39:25.092Z,13.46
2022-12-28T20:43:42.065Z,13.44
2022-12-28T20:47:59.061Z,13.45
2022-12-28T20:52:16.175Z,13.43
2022-12-28T20:56:35.110Z,13.38
2022-12-28T21:00:52.354Z,13.37
2022-12-28T21:05:09.853Z,13.34
2022-12-28T21:09:27.004Z,13.34
2022-12-28T21:13:44.869Z,13.34
2022-12-28T21:18:03.050Z,13.34
2022-12-28T21:22:20.094Z,13.31
2022-12-28T21:26:37.500Z,13.30
2022-12-28T21:30:56.060Z,13.27
2022-12-28T21:35:13.254Z,13.29
2022-12-28T21:39:30.073Z,13.25
2022-12-28T21:43:47.157Z,13.29
2022-12-28T21:48:04.356Z,13.25
2022-12-28T21:52:21.906Z,13.25
2022-12-28T21:56:39.926Z,13.23
2022-12-28T22:01:18.983Z,13.20
2022-12-28T22:05:47.727Z,13.20
2022-12-28T22:10:23.853Z,13.21
2022-12-28T22:14:40.942Z,13.17
2022-12-28T22:19:02.738Z,13.18
2022-12-28T22:23:20.597Z,13.14
2022-12-28T22:27:37.514Z,13.16
2022-12-28T22:31:55.935Z,13.16
2022-12-28T22:36:16.769Z,13.14
2022-12-28T22:40:33.647Z,13.13
2022-12-28T22:44:51.538Z,13.12
2022-12-28T22:49:08.363Z,13.10
2022-12-28T22:53:25.411Z,13.10
2022-12-28T22:57:42.445Z,13.15
2022-12-28T23:01:59.926Z,13.09
2022-12-28T23:06:19.510Z,13.06
2022-12-28T23:10:36.560Z,13.06
2022-12-28T23:15:12.437Z,13.05
2022-12-28T23:19:49.306Z,13.06
2022-12-28T23:24:32.371Z,13.05
2022-12-28T23:28:49.508Z,13.05
2022-12-28T23:33:06.471Z,13.03
2022-12-28T23:37:23.579Z,13.04
2022-12-28T23:41:49.622Z,13.10
2022-12-28T23:46:06.675Z,13.04
2022-12-28T23:50:23.841Z,13.08
2022-12-28T23:54:40.705Z,13.06
2022-12-28T23:58:58.020Z,13.03
